Keith, Illinois
Current Conditions -  °F | °C
As of 12:35 PM on Wednesday 26 Nov 2014 (Local Time) from KFOA Reporting Station
Clear Clear  
Wind Chill: 27°   Ceiling: Unl
Heat Index: 35°   Visibility: 10mi
Dew Point: 30°   Wind: 10mph
Humidity: 82%   Direction: 110°ESE
Pressure: 30.04"   Gusts: NA
Location:  38.5816°N, 88.4678°W
Report Text: KFOA 261835Z AUTO 11009KT 10SM CLR 02/M01 A3004 RMK AO2 T00171011
Loading
Personal Weather Stations






























Interactive Weather Map New forecast layout! Learn more

10-Day Weather Forecast

Advertisements
Track Severe Weather on mobile